createdAt,value
2018-09-10T00:02:06.023Z,82.50
2018-09-10T00:04:34.218Z,82.60
2018-09-10T00:07:02.372Z,82.60
2018-09-10T00:12:04.930Z,83.20
2018-09-10T00:14:33.064Z,83.30
2018-09-10T00:17:01.277Z,83.40
2018-09-10T00:19:30.306Z,83.70
2018-09-10T00:21:58.447Z,84.40
2018-09-10T00:24:26.621Z,84.30
2018-09-10T00:26:54.795Z,84.40
2018-09-10T00:29:22.952Z,84.60
2018-09-10T00:31:51.075Z,84.70
2018-09-10T00:34:19.192Z,84.60
2018-09-10T00:36:47.304Z,85.40
2018-09-10T00:39:15.634Z,84.90
2018-09-10T00:41:43.832Z,85.10
2018-09-10T00:44:11.977Z,85.00
2018-09-10T00:46:40.286Z,85.30
2018-09-10T00:49:08.796Z,85.40
2018-09-10T00:51:36.902Z,85.60
2018-09-10T00:54:05.062Z,85.70
2018-09-10T00:56:33.252Z,85.80
2018-09-10T00:59:01.640Z,85.80
2018-09-10T01:01:29.906Z,86.00
2018-09-10T01:03:58.078Z,86.10
2018-09-10T01:06:27.276Z,86.30
2018-09-10T01:08:55.485Z,86.40
2018-09-10T01:11:23.910Z,86.70
2018-09-10T01:13:52.083Z,86.80
2018-09-10T01:16:21.904Z,87.00
2018-09-10T01:18:50.046Z,87.70
2018-09-10T01:21:18.197Z,87.00
2018-09-10T01:23:46.333Z,87.50
2018-09-10T01:26:14.500Z,87.50
2018-09-10T01:28:42.768Z,87.80
2018-09-10T01:31:11.003Z,87.90
2018-09-10T01:34:44.916Z,87.90
2018-09-10T01:37:13.286Z,88.10
2018-09-10T01:39:41.523Z,88.80
2018-09-10T01:42:09.674Z,88.40
2018-09-10T01:44:37.880Z,88.40
2018-09-10T01:47:06.082Z,88.60
2018-09-10T01:49:34.290Z,88.60
2018-09-10T01:52:02.474Z,88.60
2018-09-10T01:54:30.668Z,88.20
2018-09-10T01:56:58.822Z,89.30
2018-09-10T01:59:26.985Z,88.50
2018-09-10T02:01:55.106Z,88.30
2018-09-10T02:04:23.229Z,88.10
2018-09-10T02:06:51.390Z,87.90
2018-09-10T02:09:19.630Z,88.00
2018-09-10T02:11:47.834Z,87.90
2018-09-10T02:14:15.990Z,87.80
2018-09-10T02:16:44.210Z,87.80
2018-09-10T02:19:12.371Z,87.70
2018-09-10T02:21:40.521Z,87.60
2018-09-10T02:24:08.653Z,87.50
2018-09-10T02:26:36.756Z,87.40
2018-09-10T02:29:06.088Z,87.30
2018-09-10T02:31:34.880Z,87.10
2018-09-10T02:34:03.020Z,86.90
2018-09-10T02:36:31.366Z,86.70
2018-09-10T02:38:59.590Z,86.60
2018-09-10T02:41:28.552Z,86.30
2018-09-10T02:43:56.802Z,86.20
2018-09-10T02:46:24.958Z,86.00
2018-09-10T02:48:53.138Z,85.90
2018-09-10T02:51:21.537Z,86.50
2018-09-10T02:53:50.877Z,85.80
2018-09-10T02:56:19.171Z,85.30
2018-09-10T02:58:47.692Z,85.30
2018-09-10T03:01:15.770Z,85.00
2018-09-10T03:03:43.936Z,84.30
2018-09-10T03:06:12.086Z,84.40
2018-09-10T03:08:40.348Z,84.60
2018-09-10T03:11:08.526Z,84.50
2018-09-10T03:13:36.876Z,85.20
2018-09-10T03:16:05.001Z,84.70
2018-09-10T03:18:33.301Z,84.30
2018-09-10T03:21:01.522Z,84.60
2018-09-10T03:23:29.675Z,84.90
2018-09-10T03:25:57.847Z,84.00
2018-09-10T03:28:26.003Z,84.50
2018-09-10T03:30:54.126Z,84.90
2018-09-10T03:33:22.224Z,84.80
2018-09-10T03:35:50.351Z,85.10
2018-09-10T03:38:18.466Z,85.30
2018-09-10T03:40:46.640Z,85.40
2018-09-10T03:43:16.202Z,85.60
2018-09-10T03:45:44.339Z,85.70
2018-09-10T03:48:12.930Z,85.50
2018-09-10T03:50:41.071Z,85.80
2018-09-10T03:53:09.222Z,85.90
2018-09-10T03:55:37.357Z,86.60
2018-09-10T03:58:05.466Z,86.00
2018-09-10T04:02:55.102Z,86.10
2018-09-10T04:05:24.534Z,85.40
2018-09-10T04:07:52.682Z,85.40
2018-09-10T04:10:20.852Z,85.40
2018-09-10T04:12:49.276Z,84.90
2018-09-10T04:15:17.586Z,84.80
2018-09-10T04:17:45.682Z,84.40
2018-09-10T04:20:15.013Z,84.30
2018-09-10T04:22:43.346Z,83.90
2018-09-10T04:25:11.520Z,83.60
2018-09-10T04:27:39.902Z,83.80
2018-09-10T04:30:11.036Z,84.00
2018-09-10T04:32:39.200Z,84.10
2018-09-10T04:35:07.510Z,84.30
2018-09-10T04:37:35.992Z,84.30
2018-09-10T04:40:04.690Z,84.30
2018-09-10T04:42:32.899Z,84.50
2018-09-10T04:45:01.307Z,84.60
2018-09-10T04:47:29.438Z,84.70
2018-09-10T04:49:57.590Z,84.70
2018-09-10T04:52:25.824Z,84.80
2018-09-10T04:54:54.645Z,84.80
2018-09-10T04:57:22.808Z,84.80
2018-09-10T04:59:50.931Z,84.80
2018-09-10T05:02:19.064Z,84.80
2018-09-10T05:04:47.214Z,84.60
2018-09-10T05:07:15.366Z,84.50
2018-09-10T05:09:43.660Z,84.40
2018-09-10T05:12:11.911Z,84.30
2018-09-10T05:14:40.076Z,84.30
2018-09-10T05:17:08.258Z,84.10
2018-09-10T05:19:36.558Z,84.70
2018-09-10T05:22:05.825Z,83.90
2018-09-10T05:24:34.040Z,83.70
2018-09-10T05:27:02.224Z,83.70
2018-09-10T05:29:30.444Z,83.40
2018-09-10T05:31:58.796Z,83.50
2018-09-10T05:34:27.076Z,83.50
2018-09-10T05:36:55.274Z,83.40
2018-09-10T05:39:23.495Z,83.50
2018-09-10T05:41:51.722Z,84.00
2018-09-10T05:44:19.999Z,83.80
2018-09-10T05:46:48.252Z,83.60
2018-09-10T05:49:16.526Z,83.60
2018-09-10T05:51:44.662Z,83.90
2018-09-10T05:54:16.903Z,83.70
2018-09-10T05:56:45.102Z,83.70
2018-09-10T05:59:13.363Z,83.80
2018-09-10T06:01:41.488Z,84.00
2018-09-10T06:04:09.693Z,84.00
2018-09-10T06:06:38.015Z,83.90
2018-09-10T06:09:06.734Z,83.60
2018-09-10T06:11:35.081Z,82.80
2018-09-10T06:14:03.460Z,81.60
2018-09-10T06:16:32.503Z,81.10
2018-09-10T06:19:00.931Z,80.60
2018-09-10T06:21:29.112Z,80.30
2018-09-10T06:23:59.681Z,79.80
2018-09-10T06:26:27.822Z,79.40
2018-09-10T06:28:56.194Z,77.80
2018-09-10T06:31:24.715Z,76.60
2018-09-10T06:33:53.938Z,75.10
2018-09-10T06:36:22.761Z,74.00
2018-09-10T06:38:51.152Z,73.40
2018-09-10T06:41:19.402Z,73.10
2018-09-10T06:43:48.016Z,72.20
2018-09-10T06:46:16.222Z,72.20
2018-09-10T06:48:45.300Z,72.10
2018-09-10T06:51:13.462Z,71.60
2018-09-10T06:53:41.657Z,71.50
2018-09-10T06:56:09.859Z,71.60
2018-09-10T06:58:38.071Z,71.10
2018-09-10T07:01:06.294Z,70.10
2018-09-10T07:03:34.598Z,70.00
2018-09-10T07:06:02.762Z,69.20
2018-09-10T07:08:30.884Z,68.30
2018-09-10T07:10:59.030Z,68.20
2018-09-10T07:13:27.153Z,67.60
2018-09-10T07:15:55.286Z,67.20
2018-09-10T07:18:23.481Z,67.30
2018-09-10T07:20:51.975Z,67.20
2018-09-10T07:23:20.350Z,67.00
2018-09-10T07:25:48.484Z,66.50
2018-09-10T07:28:16.624Z,65.70
2018-09-10T07:30:44.740Z,65.10
2018-09-10T07:33:12.883Z,63.90
2018-09-10T07:35:43.214Z,63.00
2018-09-10T07:38:11.376Z,62.00
2018-09-10T07:40:40.941Z,61.50
2018-09-10T07:43:09.198Z,61.40
2018-09-10T07:45:38.240Z,60.70
2018-09-10T07:48:06.362Z,59.90
2018-09-10T07:50:34.540Z,59.90
2018-09-10T07:53:02.920Z,59.60
2018-09-10T07:55:31.060Z,59.50
2018-09-10T07:57:59.382Z,59.30
2018-09-10T08:00:27.620Z,59.40
2018-09-10T08:02:55.854Z,59.40
2018-09-10T08:05:24.013Z,59.50
2018-09-10T08:07:53.452Z,59.30
2018-09-10T08:10:21.538Z,59.10
2018-09-10T08:12:49.655Z,59.00
2018-09-10T08:15:17.850Z,59.30
2018-09-10T08:17:47.494Z,59.70
2018-09-10T08:20:15.670Z,59.60
2018-09-10T08:22:43.835Z,59.70
2018-09-10T08:25:12.039Z,59.60
2018-09-10T08:27:40.376Z,59.50
2018-09-10T08:30:08.709Z,58.90
2018-09-10T08:32:37.053Z,58.90
2018-09-10T08:35:05.192Z,59.10
2018-09-10T08:37:33.314Z,59.10
2018-09-10T08:40:02.056Z,59.10
2018-09-10T08:42:30.601Z,58.80
2018-09-10T08:44:59.903Z,58.40
2018-09-10T08:47:29.304Z,58.10
2018-09-10T08:49:57.448Z,57.20
2018-09-10T08:52:25.620Z,56.40
2018-09-10T08:54:55.129Z,55.80
2018-09-10T08:57:22.962Z,55.90
2018-09-10T08:59:51.056Z,55.20
2018-09-10T09:02:19.196Z,54.40
2018-09-10T09:04:47.344Z,53.60
2018-09-10T09:07:17.576Z,53.30
2018-09-10T09:09:45.771Z,52.10
2018-09-10T09:12:13.944Z,51.60
2018-09-10T09:14:42.084Z,51.60
2018-09-10T09:17:10.220Z,51.40
2018-09-10T09:19:38.431Z,51.10
2018-09-10T09:22:06.650Z,50.90
2018-09-10T09:24:35.053Z,50.80
2018-09-10T09:27:03.209Z,50.50
2018-09-10T09:29:32.617Z,50.50
2018-09-10T09:32:01.943Z,50.40
2018-09-10T09:35:00.955Z,50.20
2018-09-10T09:37:34.563Z,49.80
2018-09-10T09:40:08.231Z,49.90
2018-09-10T09:42:41.963Z,49.90
2018-09-10T09:45:15.604Z,49.90
2018-09-10T09:47:44.590Z,49.60
2018-09-10T09:50:12.730Z,49.60
2018-09-10T09:52:40.892Z,49.10
2018-09-10T09:55:09.244Z,49.00
2018-09-10T09:57:37.606Z,49.00
2018-09-10T10:00:10.212Z,48.60
2018-09-10T10:02:43.970Z,48.40
2018-09-10T10:05:12.158Z,48.50
2018-09-10T10:07:40.307Z,48.40
2018-09-10T10:10:08.478Z,48.10
2018-09-10T10:12:36.638Z,47.20
2018-09-10T10:15:04.971Z,46.80
2018-09-10T10:17:33.224Z,46.50
2018-09-10T10:20:01.440Z,46.30
2018-09-10T10:22:29.584Z,46.50
2018-09-10T10:24:57.716Z,46.70
2018-09-10T10:27:25.893Z,46.70
2018-09-10T10:29:54.196Z,46.70
2018-09-10T10:32:22.422Z,46.10
2018-09-10T10:34:50.660Z,46.60
2018-09-10T10:37:21.618Z,46.40
2018-09-10T10:39:49.948Z,46.20
2018-09-10T10:42:18.124Z,45.60
2018-09-10T10:44:46.284Z,44.30
2018-09-10T10:47:14.382Z,43.50
2018-09-10T10:49:44.065Z,43.20
2018-09-10T10:52:12.269Z,43.40
2018-09-10T10:54:45.404Z,43.50
2018-09-10T10:57:13.697Z,43.70
2018-09-10T10:59:41.874Z,43.80
2018-09-10T11:02:10.090Z,44.00
2018-09-10T11:04:38.670Z,43.70
2018-09-10T11:07:07.082Z,43.40
2018-09-10T11:09:35.386Z,43.20
2018-09-10T11:12:03.522Z,42.60
2018-09-10T11:14:31.675Z,42.20
2018-09-10T11:17:01.746Z,41.80
2018-09-10T11:19:30.011Z,41.60
2018-09-10T11:21:58.420Z,41.40
2018-09-10T11:24:26.622Z,41.30
2018-09-10T11:26:55.034Z,41.50
2018-09-10T11:29:23.144Z,41.80
2018-09-10T11:31:51.390Z,41.70
2018-09-10T11:34:19.562Z,41.50
2018-09-10T11:36:49.254Z,41.40
2018-09-10T11:39:17.428Z,41.40
2018-09-10T11:41:45.584Z,41.50
2018-09-10T11:44:13.756Z,41.20
2018-09-10T11:46:41.965Z,41.40
2018-09-10T11:49:10.097Z,41.40
2018-09-10T11:51:38.241Z,41.10
2018-09-10T11:54:06.423Z,40.60
2018-09-10T11:56:35.814Z,40.50
2018-09-10T11:59:04.108Z,40.50
2018-09-10T12:01:33.487Z,40.40
2018-09-10T12:04:01.611Z,39.90
2018-09-10T12:06:29.774Z,39.40
2018-09-10T12:08:58.090Z,39.50
2018-09-10T12:11:26.240Z,39.50
2018-09-10T12:13:54.475Z,39.00
2018-09-10T12:16:22.718Z,38.60
2018-09-10T12:18:50.921Z,37.80
2018-09-10T12:21:19.089Z,38.50
2018-09-10T12:23:47.217Z,38.80
2018-09-10T12:26:15.413Z,39.10
2018-09-10T12:28:43.729Z,38.30
2018-09-10T12:31:11.905Z,38.00
2018-09-10T12:33:40.063Z,37.90
2018-09-10T12:36:08.272Z,38.10
2018-09-10T12:38:36.480Z,38.00
2018-09-10T12:41:05.233Z,38.40
2018-09-10T12:43:33.450Z,38.60
2018-09-10T12:46:01.852Z,38.00
2018-09-10T12:48:31.148Z,37.60
2018-09-10T12:51:00.014Z,37.10
2018-09-10T12:53:28.163Z,37.60
2018-09-10T12:55:57.360Z,37.30
2018-09-10T12:58:25.498Z,37.30
2018-09-10T13:00:53.640Z,37.30
2018-09-10T13:03:22.416Z,37.50
2018-09-10T13:05:50.542Z,37.40
2018-09-10T13:08:19.820Z,37.50
2018-09-10T13:10:48.089Z,37.90
2018-09-10T13:13:16.236Z,37.90
2018-09-10T13:15:44.423Z,38.00
2018-09-10T13:18:12.559Z,37.70
2018-09-10T13:20:40.783Z,38.00
2018-09-10T13:23:08.965Z,37.50
2018-09-10T13:25:37.185Z,37.20
2018-09-10T13:28:05.457Z,37.10
2018-09-10T13:30:33.635Z,38.00
2018-09-10T13:33:02.849Z,37.40
2018-09-10T13:35:31.022Z,37.60
2018-09-10T13:37:59.312Z,37.60
2018-09-10T13:40:27.486Z,37.80
2018-09-10T13:42:55.900Z,38.10
2018-09-10T13:45:24.932Z,38.40
2018-09-10T13:47:53.099Z,38.30
2018-09-10T13:50:21.290Z,38.50
2018-09-10T13:52:57.893Z,38.70
2018-09-10T13:55:26.110Z,38.90
2018-09-10T13:57:54.225Z,38.80
2018-09-10T14:00:22.321Z,39.50
2018-09-10T14:02:50.469Z,40.20
2018-09-10T14:05:18.751Z,39.80
2018-09-10T14:07:46.924Z,39.70
2018-09-10T14:10:15.281Z,39.60
2018-09-10T14:12:43.452Z,39.80
2018-09-10T14:15:11.821Z,39.60
2018-09-10T14:17:40.024Z,39.70
2018-09-10T14:20:08.153Z,39.80
2018-09-10T14:22:36.363Z,39.80
2018-09-10T14:25:04.723Z,40.00
2018-09-10T14:27:33.008Z,39.90
2018-09-10T14:30:01.172Z,39.80
2018-09-10T14:32:29.319Z,39.80
2018-09-10T14:34:57.576Z,39.90
2018-09-10T14:37:25.915Z,40.40
2018-09-10T14:39:54.561Z,40.60
2018-09-10T14:42:22.704Z,40.70
2018-09-10T14:44:50.900Z,41.00
2018-09-10T14:47:19.112Z,41.20
2018-09-10T14:49:47.408Z,40.80
2018-09-10T14:52:15.590Z,41.00
2018-09-10T14:54:43.804Z,40.70
2018-09-10T14:57:12.041Z,40.90
2018-09-10T14:59:40.355Z,41.30
2018-09-10T15:02:08.668Z,40.90
2018-09-10T15:04:36.846Z,41.20
2018-09-10T15:07:05.025Z,41.60
2018-09-10T15:09:33.319Z,41.60
2018-09-10T15:12:01.587Z,41.80
2018-09-10T15:14:29.836Z,41.80
2018-09-10T15:16:58.076Z,41.90
2018-09-10T15:19:26.260Z,41.80
2018-09-10T15:21:54.483Z,42.00
2018-09-10T15:24:22.692Z,42.10
2018-09-10T15:26:51.496Z,42.60
2018-09-10T15:29:19.672Z,43.40
2018-09-10T15:31:47.943Z,43.90
2018-09-10T15:34:16.181Z,44.50
2018-09-10T15:36:44.366Z,46.00
2018-09-10T15:39:12.608Z,46.60
2018-09-10T15:41:42.320Z,46.70
2018-09-10T15:44:10.577Z,46.70
2018-09-10T15:46:38.802Z,47.50
2018-09-10T15:49:07.109Z,47.50
2018-09-10T15:51:35.256Z,47.60
2018-09-10T15:54:03.894Z,47.40
2018-09-10T15:56:32.087Z,47.60
2018-09-10T15:59:00.348Z,47.60
2018-09-10T16:01:28.569Z,47.60
2018-09-10T16:03:56.769Z,48.00
2018-09-10T16:06:25.006Z,48.30
2018-09-10T16:08:53.147Z,48.70
2018-09-10T16:11:21.338Z,49.40
2018-09-10T16:13:50.521Z,49.90
2018-09-10T16:16:18.711Z,50.00
2018-09-10T16:18:46.984Z,50.00
2018-09-10T16:21:15.196Z,49.80
2018-09-10T16:23:43.412Z,50.10
2018-09-10T16:26:11.724Z,50.20
2018-09-10T16:28:39.961Z,50.20
2018-09-10T16:31:08.279Z,49.80
2018-09-10T16:33:36.526Z,49.90
2018-09-10T16:36:05.520Z,50.00
2018-09-10T16:38:33.655Z,50.00
2018-09-10T16:41:01.892Z,49.90
2018-09-10T16:43:30.008Z,50.30
2018-09-10T16:45:58.258Z,50.40
2018-09-10T16:48:26.680Z,50.10
2018-09-10T16:50:55.423Z,50.30
2018-09-10T16:53:23.608Z,50.60
2018-09-10T16:55:51.780Z,50.90
2018-09-10T16:58:20.060Z,51.30
2018-09-10T17:00:48.359Z,51.50
2018-09-10T17:03:16.531Z,51.90
2018-09-10T17:05:46.661Z,52.00
2018-09-10T17:08:14.848Z,52.30
2018-09-10T17:10:42.998Z,52.50
2018-09-10T17:13:11.375Z,52.80
2018-09-10T17:15:39.775Z,52.50
2018-09-10T17:18:08.208Z,52.80
2018-09-10T17:20:37.435Z,52.60
2018-09-10T17:23:06.221Z,53.00
2018-09-10T17:25:34.606Z,52.60
2018-09-10T17:28:02.957Z,52.90
2018-09-10T17:30:31.128Z,53.10
2018-09-10T17:32:59.474Z,53.00
2018-09-10T17:35:27.844Z,52.80
2018-09-10T17:37:56.060Z,52.80
2018-09-10T17:40:24.294Z,52.50
2018-09-10T17:42:52.615Z,52.50
2018-09-10T17:45:20.783Z,52.70
2018-09-10T17:47:49.166Z,52.80
2018-09-10T17:50:19.211Z,52.70
2018-09-10T17:52:47.400Z,52.70
2018-09-10T17:55:15.584Z,52.70
2018-09-10T17:57:44.113Z,53.00
2018-09-10T18:00:12.300Z,53.30
2018-09-10T18:02:40.461Z,53.50
2018-09-10T18:05:08.776Z,53.60
2018-09-10T18:07:37.030Z,53.70
2018-09-10T18:10:06.122Z,53.90
2018-09-10T18:12:34.328Z,54.10
2018-09-10T18:15:02.678Z,54.60
2018-09-10T18:17:30.878Z,54.40
2018-09-10T18:19:59.668Z,54.50
2018-09-10T18:22:27.803Z,54.40
2018-09-10T18:24:56.067Z,54.50
2018-09-10T18:27:24.909Z,54.60
2018-09-10T18:29:53.123Z,54.60
2018-09-10T18:32:21.355Z,54.70
2018-09-10T18:34:49.537Z,54.70
2018-09-10T18:37:17.779Z,54.70
2018-09-10T18:39:46.003Z,54.70
2018-09-10T18:42:14.199Z,54.90
2018-09-10T18:44:42.434Z,54.90
2018-09-10T18:47:10.630Z,54.90
2018-09-10T18:49:40.003Z,54.90
2018-09-10T18:52:08.248Z,55.10
2018-09-10T18:54:36.564Z,55.30
2018-09-10T18:57:04.819Z,55.20
2018-09-10T18:59:33.057Z,55.30
2018-09-10T19:02:01.321Z,55.40
2018-09-10T19:04:29.538Z,55.50
2018-09-10T19:06:57.821Z,55.60
2018-09-10T19:09:26.571Z,55.60
2018-09-10T19:11:54.953Z,55.80
2018-09-10T19:14:23.831Z,56.00
2018-09-10T19:16:52.623Z,56.10
2018-09-10T19:19:20.951Z,56.40
2018-09-10T19:21:49.185Z,56.50
2018-09-10T19:24:18.123Z,56.80
2018-09-10T19:26:46.562Z,57.30
2018-09-10T19:29:14.854Z,57.10
2018-09-10T19:31:43.008Z,57.40
2018-09-10T19:34:11.269Z,57.50
2018-09-10T19:36:40.574Z,57.60
2018-09-10T19:39:10.901Z,57.90
2018-09-10T19:41:39.086Z,57.90
2018-09-10T19:44:07.307Z,58.20
2018-09-10T19:46:35.418Z,58.20
2018-09-10T19:49:03.625Z,58.20
2018-09-10T19:51:31.911Z,58.30
2018-09-10T19:54:00.120Z,58.40
2018-09-10T19:56:28.504Z,58.60
2018-09-10T19:58:56.755Z,58.70
2018-09-10T20:01:25.323Z,58.70
2018-09-10T20:03:54.118Z,58.80
2018-09-10T20:06:22.525Z,58.90
2018-09-10T20:08:51.381Z,59.10
2018-09-10T20:11:19.553Z,59.30
2018-09-10T20:13:47.834Z,59.40
2018-09-10T20:16:16.026Z,59.60
2018-09-10T20:18:44.243Z,59.70
2018-09-10T20:21:12.434Z,60.00
2018-09-10T20:23:41.239Z,60.20
2018-09-10T20:26:09.426Z,60.50
2018-09-10T20:28:37.560Z,60.70
2018-09-10T20:31:08.673Z,60.90
2018-09-10T20:33:42.949Z,61.20
2018-09-10T20:36:11.128Z,61.50
2018-09-10T20:38:40.124Z,62.40
2018-09-10T20:41:08.309Z,62.20
2018-09-10T20:43:36.494Z,62.90
2018-09-10T20:46:04.842Z,62.70
2018-09-10T20:48:33.133Z,63.10
2018-09-10T20:51:01.357Z,63.50
2018-09-10T20:53:29.503Z,63.60
2018-09-10T20:55:57.858Z,63.90
2018-09-10T20:58:26.009Z,64.30
2018-09-10T21:00:54.152Z,64.50
2018-09-10T21:03:22.372Z,65.00
2018-09-10T21:05:51.733Z,65.20
2018-09-10T21:08:20.275Z,65.60
2018-09-10T21:10:48.505Z,66.00
2018-09-10T21:13:16.712Z,66.30
2018-09-10T21:15:44.999Z,66.70
2018-09-10T21:18:14.079Z,66.90
2018-09-10T21:20:42.519Z,67.20
2018-09-10T21:23:11.686Z,67.40
2018-09-10T21:25:39.985Z,67.40
2018-09-10T21:28:08.241Z,67.70
2018-09-10T21:30:36.500Z,67.90
2018-09-10T21:33:04.680Z,68.00
2018-09-10T21:35:33.142Z,68.20
2018-09-10T21:38:01.473Z,68.20
2018-09-10T21:40:30.743Z,69.10
2018-09-10T21:42:58.976Z,68.30
2018-09-10T21:45:28.139Z,68.40
2018-09-10T21:47:57.748Z,68.30
2018-09-10T21:50:25.921Z,68.50
2018-09-10T21:52:55.896Z,68.70
2018-09-10T21:55:25.311Z,68.60
2018-09-10T21:57:53.633Z,68.70
2018-09-10T22:00:22.107Z,69.00
2018-09-10T22:02:50.379Z,69.10
2018-09-10T22:05:18.797Z,69.20
2018-09-10T22:07:46.949Z,69.40
2018-09-10T22:10:15.321Z,69.40
2018-09-10T22:12:43.499Z,69.50
2018-09-10T22:15:11.652Z,70.10
2018-09-10T22:17:40.323Z,69.40
2018-09-10T22:20:08.512Z,69.40
2018-09-10T22:22:36.925Z,69.30
2018-09-10T22:25:05.411Z,69.30
2018-09-10T22:27:33.651Z,69.30
2018-09-10T22:30:01.786Z,69.10
2018-09-10T22:32:30.336Z,69.20
2018-09-10T22:34:59.670Z,69.40
2018-09-10T22:37:27.811Z,69.40
2018-09-10T22:39:55.917Z,69.40
2018-09-10T22:42:25.720Z,69.40
2018-09-10T22:44:54.559Z,69.50
2018-09-10T22:47:22.908Z,69.60
2018-09-10T22:49:51.073Z,69.70
2018-09-10T22:52:19.312Z,69.70
2018-09-10T22:54:47.472Z,69.70
2018-09-10T22:57:15.834Z,69.40
2018-09-10T22:59:43.963Z,69.40
2018-09-10T23:02:12.210Z,69.60
2018-09-10T23:04:40.559Z,69.70
2018-09-10T23:07:08.731Z,69.70
2018-09-10T23:09:37.054Z,69.80
2018-09-10T23:12:05.283Z,69.80
2018-09-10T23:14:33.392Z,69.80
2018-09-10T23:17:01.643Z,70.10
2018-09-10T23:19:29.917Z,70.00
2018-09-10T23:21:58.247Z,70.10
2018-09-10T23:24:26.439Z,70.40
2018-09-10T23:26:54.799Z,70.50
2018-09-10T23:29:22.943Z,70.60
2018-09-10T23:31:51.287Z,71.00
2018-09-10T23:34:19.427Z,71.10
2018-09-10T23:36:47.726Z,71.20
2018-09-10T23:39:15.969Z,71.70
2018-09-10T23:41:44.091Z,71.60
2018-09-10T23:44:12.237Z,71.90
2018-09-10T23:46:40.551Z,72.10
2018-09-10T23:49:08.748Z,73.10
2018-09-10T23:51:36.938Z,72.50
2018-09-10T23:54:06.866Z,72.60
2018-09-10T23:56:35.043Z,72.90
2018-09-10T23:59:03.236Z,72.90
